Hitchin, United Kingdom
Current Conditions -  °F | °C
As of 7:50 PM on Tuesday 21 Oct 2014 (Local Time) from EGGW Reporting Station
Light Rain Light Rain  
Wind Chill: 39°   Ceiling: 2900
Heat Index: 46°   Visibility: 6mi
Dew Point: 39°   Wind: 20mph
Humidity: 76%   Direction: 330°NNW
Pressure: 29.97"   Gusts: NA
Location:  52.04°N, 0.27°W
Report Text: EGGW 211850Z 33017KT 9999 -RA BKN029 BKN033 08/04 Q1015
Loading
Personal Weather Stations






























Interactive Weather Map
Tropical Storm Tracking
New forecast layout! Learn more

10-Day Weather Forecast

Advertisements
Track Severe Weather on mobile